Time;durP1;ratioP1;P1;durP2;ratioP2;P2;SDS_P1;SDS_P2;PMS_P1;PMS_P2;Temp;Humidity;BMP_temperature;BMP_pressure;BME280_temperature;BME280_humidity;BME280_pressure;Samples;Min_cycle;Max_cycle;Signal;HPM_P1;HPM_P2
2021/04/19 00:01:25;;;;;;;20.63;13.10;;;;;;;;;;3588813;40;20068;-60
2021/04/19 00:03:51;;;;;;;15.65;13.57;;;;;;;;;;3588736;40;20042;-60
2021/04/19 00:06:16;;;;;;;17.60;14.95;;;;;;;;;;3589778;40;20342;-60
2021/04/19 00:08:42;;;;;;;18.08;13.73;;;;;;;;;;3588440;40;20045;-60
2021/04/19 00:11:07;;;;;;;15.50;13.43;;;;;;;;;;3588503;40;20049;-60
2021/04/19 00:13:32;;;;;;;18.83;15.77;;;;;;;;;;3588117;40;20289;-60
2021/04/19 00:15:58;;;;;;;18.95;15.38;;;;;;;;;;3587815;40;20028;-60
2021/04/19 00:18:23;;;;;;;21.25;16.05;;;;;;;;;;3589537;39;20032;-60
2021/04/19 00:20:49;;;;;;;21.60;16.85;;;;;;;;;;3588571;40;20036;-60
2021/04/19 00:23:14;;;;;;;19.30;16.33;;;;;;;;;;3589388;40;20044;-60
2021/04/19 00:25:39;;;;;;;18.33;15.85;;;;;;;;;;3588476;40;20162;-60
2021/04/19 00:28:05;;;;;;;18.98;16.90;;;;;;;;;;3589196;40;20044;-60
2021/04/19 00:30:30;;;;;;;21.27;16.85;;;;;;;;;;3589822;39;20025;-60
2021/04/19 00:32:56;;;;;;;19.13;16.77;;;;;;;;;;3591441;39;20035;-60
2021/04/19 00:35:21;;;;;;;20.55;17.70;;;;;;;;;;3589026;40;20116;-60
2021/04/19 00:37:47;;;;;;;22.40;17.30;;;;;;;;;;3588577;40;20118;-60
2021/04/19 00:40:15;;;;;;;20.50;18.30;;;;;;;;;;3588512;40;20044;-60
2021/04/19 00:42:46;;;;;;;22.90;17.55;;;;;;;;;;3588487;40;20044;-60
2021/04/19 00:45:12;;;;;;;20.58;17.38;;;;;;;;;;3590609;39;20036;-60
2021/04/19 00:47:38;;;;;;;21.58;18.35;;;;;;;;;;3587958;40;20040;-60
2021/04/19 00:50:09;;;;;;;23.63;17.88;;;;;;;;;;3588422;40;20363;-60
2021/04/19 00:52:35;;;;;;;22.83;18.70;;;;;;;;;;3588302;40;20037;-60
2021/04/19 00:55:00;;;;;;;22.02;17.85;;;;;;;;;;3589184;40;20467;-60
2021/04/19 00:57:30;;;;;;;24.50;18.30;;;;;;;;;;3587555;40;20044;-60
2021/04/19 00:59:55;;;;;;;21.23;18.00;;;;;;;;;;3589234;39;20099;-60
2021/04/19 01:02:21;;;;;;;18.15;16.17;;;;;;;;;;3589043;40;20039;-60
2021/04/19 01:04:46;;;;;;;17.50;15.15;;;;;;;;;;3588783;40;20059;-60
2021/04/19 01:07:12;;;;;;;16.88;14.68;;;;;;;;;;3588283;40;20413;-60
2021/04/19 01:09:38;;;;;;;20.00;15.65;;;;;;;;;;3590350;39;20072;-60
2021/04/19 01:12:04;;;;;;;16.27;14.40;;;;;;;;;;3588830;40;20040;-60
2021/04/19 01:14:29;;;;;;;17.70;14.80;;;;;;;;;;3591209;39;20032;-60
2021/04/19 01:16:55;;;;;;;14.68;13.18;;;;;;;;;;3587536;40;20047;-60
2021/04/19 01:19:20;;;;;;;16.90;13.80;;;;;;;;;;3587859;40;20047;-60
2021/04/19 01:21:45;;;;;;;14.40;12.82;;;;;;;;;;3588411;40;20271;-60
2021/04/19 01:24:11;;;;;;;15.07;13.27;;;;;;;;;;3590060;39;20423;-61
2021/04/19 01:26:36;;;;;;;14.20;12.27;;;;;;;;;;3590642;40;20035;-60
2021/04/19 01:29:02;;;;;;;13.43;11.65;;;;;;;;;;3587876;40;20076;-60
2021/04/19 01:31:27;;;;;;;13.80;12.35;;;;;;;;;;3588803;39;20449;-60
2021/04/19 01:33:53;;;;;;;14.10;12.43;;;;;;;;;;3588100;40;20346;-60
2021/04/19 01:36:18;;;;;;;13.18;11.88;;;;;;;;;;3589179;40;20041;-60
2021/04/19 01:38:44;;;;;;;17.13;11.82;;;;;;;;;;3587916;40;20039;-60
2021/04/19 01:41:09;;;;;;;13.25;11.55;;;;;;;;;;3589430;39;20402;-60
2021/04/19 01:43:35;;;;;;;15.07;13.35;;;;;;;;;;3590642;39;20040;-60
2021/04/19 01:46:01;;;;;;;16.33;13.80;;;;;;;;;;3588183;39;20051;-60
2021/04/19 01:48:27;;;;;;;18.38;14.13;;;;;;;;;;3587860;40;20039;-59
2021/04/19 01:50:53;;;;;;;15.57;13.93;;;;;;;;;;3588019;39;20425;-60
2021/04/19 01:53:19;;;;;;;15.60;13.50;;;;;;;;;;3588619;40;20084;-60
2021/04/19 01:55:46;;;;;;;18.38;13.80;;;;;;;;;;3589091;40;20279;-59
2021/04/19 01:58:14;;;;;;;17.33;13.75;;;;;;;;;;3587941;40;20084;-60
2021/04/19 02:00:43;;;;;;;17.05;14.35;;;;;;;;;;3589344;40;20052;-59
2021/04/19 02:03:18;;;;;;;16.33;13.65;;;;;;;;;;3588564;40;20081;-60
2021/04/19 02:06:04;;;;;;;16.15;14.32;;;;;;;;;;3588399;40;20073;-59
2021/04/19 02:08:44;;;;;;;16.40;13.45;;;;;;;;;;3587689;40;20388;-59
2021/04/19 02:11:32;;;;;;;20.35;14.25;;;;;;;;;;3589487;39;20346;-58
2021/04/19 02:14:05;;;;;;;15.85;13.60;;;;;;;;;;3588097;40;20025;-58
2021/04/19 02:17:22;;;;;;;16.58;13.43;;;;;;;;;;3588189;40;20078;-58
2021/04/19 02:20:09;;;;;;;19.23;14.27;;;;;;;;;;3587020;40;20037;-60
2021/04/19 02:22:42;;;;;;;15.70;13.30;;;;;;;;;;3587952;39;20033;-59
2021/04/19 02:25:29;;;;;;;18.60;15.43;;;;;;;;;;3587220;40;20117;-58
2021/04/19 02:28:00;;;;;;;17.65;15.73;;;;;;;;;;3589821;39;20122;-59
2021/04/19 02:30:32;;;;;;;21.45;15.15;;;;;;;;;;3588295;40;20368;-59
2021/04/19 02:32:59;;;;;;;17.90;16.00;;;;;;;;;;3588460;39;20041;-59
2021/04/19 02:35:26;;;;;;;20.65;16.55;;;;;;;;;;3588531;40;20667;-58
2021/04/19 02:37:55;;;;;;;19.27;17.08;;;;;;;;;;3590074;40;20113;-58
2021/04/19 02:40:21;;;;;;;20.23;17.80;;;;;;;;;;3589563;39;20036;-59
2021/04/19 02:42:50;;;;;;;24.00;17.42;;;;;;;;;;3589840;40;20060;-58
2021/04/19 02:45:16;;;;;;;19.02;16.23;;;;;;;;;;3589301;40;20300;-58
2021/04/19 02:47:44;;;;;;;20.52;16.48;;;;;;;;;;3589737;40;20032;-58
2021/04/19 02:50:15;;;;;;;18.27;16.17;;;;;;;;;;3587480;39;20049;-59
2021/04/19 02:52:42;;;;;;;19.35;16.95;;;;;;;;;;3589693;40;20050;-58
2021/04/19 02:55:09;;;;;;;18.77;15.93;;;;;;;;;;3589613;40;20053;-58
2021/04/19 02:57:46;;;;;;;19.25;15.90;;;;;;;;;;3589926;40;20387;-58
2021/04/19 03:00:12;;;;;;;20.45;15.20;;;;;;;;;;3590749;40;20035;-58
2021/04/19 03:02:38;;;;;;;17.65;14.23;;;;;;;;;;3590041;40;20112;-58
2021/04/19 03:05:06;;;;;;;18.13;14.15;;;;;;;;;;3592999;39;20328;-58
2021/04/19 03:07:39;;;;;;;15.32;13.70;;;;;;;;;;3595721;39;20081;-58
2021/04/19 03:10:11;;;;;;;17.10;14.00;;;;;;;;;;3591131;40;20041;-58
2021/04/19 03:12:40;;;;;;;21.48;14.50;;;;;;;;;;3591195;39;20241;-58
2021/04/19 03:15:13;;;;;;;20.13;14.90;;;;;;;;;;3593705;39;20260;-59
2021/04/19 03:17:40;;;;;;;16.95;15.15;;;;;;;;;;3590500;40;20395;-59
2021/04/19 03:20:18;;;;;;;18.20;13.38;;;;;;;;;;3591476;40;20069;-58
2021/04/19 03:22:48;;;;;;;17.75;14.32;;;;;;;;;;3589600;40;20025;-58
2021/04/19 03:25:14;;;;;;;16.45;14.68;;;;;;;;;;3590045;40;20080;-58
2021/04/19 03:27:42;;;;;;;16.48;14.73;;;;;;;;;;3588069;40;20044;-58
2021/04/19 03:30:08;;;;;;;19.02;15.68;;;;;;;;;;3589373;40;20028;-58
2021/04/19 03:32:47;;;;;;;17.38;15.52;;;;;;;;;;3589214;40;20024;-59
2021/04/19 03:35:15;;;;;;;16.65;14.75;;;;;;;;;;3591316;39;20040;-59
2021/04/19 03:37:44;;;;;;;18.58;14.90;;;;;;;;;;3589486;40;20375;-58
2021/04/19 03:40:32;;;;;;;21.45;17.73;;;;;;;;;;3589783;39;20048;-58
2021/04/19 03:43:05;;;;;;;17.90;16.02;;;;;;;;;;3588965;40;20154;-58
2021/04/19 03:45:34;;;;;;;18.77;15.52;;;;;;;;;;3588774;39;20032;-58
2021/04/19 03:48:02;;;;;;;20.30;15.57;;;;;;;;;;3588334;40;20040;-58
2021/04/19 03:50:28;;;;;;;18.13;16.20;;;;;;;;;;3588862;40;20036;-57
2021/04/19 03:52:55;;;;;;;17.42;15.35;;;;;;;;;;3588678;40;20040;-59
2021/04/19 03:55:22;;;;;;;17.83;15.60;;;;;;;;;;3589309;40;20109;-58
2021/04/19 03:57:49;;;;;;;17.85;15.90;;;;;;;;;;3588710;40;20360;-57
2021/04/19 04:00:20;;;;;;;21.15;15.05;;;;;;;;;;3589601;40;20029;-58
2021/04/19 04:02:55;;;;;;;;;;;;;;;;;;3588615;40;20046;-58
2021/04/19 04:05:21;;;;;;;17.33;14.52;;;;;;;;;;3589428;40;19955;-58
2021/04/19 04:07:49;;;;;;;18.23;15.43;;;;;;;;;;3589015;40;20068;-58
2021/04/19 04:10:17;;;;;;;19.42;16.20;;;;;;;;;;3589009;40;20460;-58
2021/04/19 04:12:42;;;;;;;20.65;17.30;;;;;;;;;;3588553;40;20502;-58
2021/04/19 04:15:08;;;;;;;19.80;16.15;;;;;;;;;;3588715;40;20040;-57
2021/04/19 04:17:34;;;;;;;23.83;16.85;;;;;;;;;;3588954;40;20077;-58
2021/04/19 04:19:59;;;;;;;19.50;16.50;;;;;;;;;;3588988;40;20044;-59
2021/04/19 04:22:25;;;;;;;17.00;15.23;;;;;;;;;;3589104;40;20063;-59
2021/04/19 04:24:51;;;;;;;17.48;15.60;;;;;;;;;;3588561;40;20079;-59
2021/04/19 04:27:17;;;;;;;17.30;15.18;;;;;;;;;;3593438;39;20445;-59
2021/04/19 04:29:43;;;;;;;18.00;15.60;;;;;;;;;;3588414;40;20377;-59
2021/04/19 04:32:08;;;;;;;18.60;14.98;;;;;;;;;;3589217;40;20382;-59
2021/04/19 04:34:34;;;;;;;14.88;13.27;;;;;;;;;;3588892;39;20030;-59
2021/04/19 04:37:00;;;;;;;14.38;12.88;;;;;;;;;;3588663;40;20138;-58
2021/04/19 04:39:26;;;;;;;14.75;12.55;;;;;;;;;;3588909;40;20525;-59
2021/04/19 04:41:51;;;;;;;15.18;13.35;;;;;;;;;;3589122;40;20049;-59
2021/04/19 04:44:27;;;;;;;14.18;11.75;;;;;;;;;;3588952;40;20036;-57
2021/04/19 04:47:09;;;;;;;16.40;11.50;;;;;;;;;;3588262;40;20028;-59
2021/04/19 04:50:00;;;;;;;14.07;11.82;;;;;;;;;;3588225;40;20028;-59
2021/04/19 04:52:30;;;;;;;14.00;11.93;;;;;;;;;;3589465;39;20032;-59
2021/04/19 04:54:57;;;;;;;14.15;11.77;;;;;;;;;;3589318;40;20080;-59
2021/04/19 04:57:24;;;;;;;13.32;10.95;;;;;;;;;;3588757;40;20055;-58
2021/04/19 04:59:52;;;;;;;14.32;11.02;;;;;;;;;;3588372;40;20051;-59
2021/04/19 05:02:20;;;;;;;11.77;10.43;;;;;;;;;;3589327;39;20053;-59
2021/04/19 05:04:47;;;;;;;13.32;10.70;;;;;;;;;;3588207;40;20060;-59
2021/04/19 05:07:12;;;;;;;19.45;13.50;;;;;;;;;;3589364;39;20036;-59
2021/04/19 05:09:38;;;;;;;13.50;12.02;;;;;;;;;;3591779;39;20503;-59
2021/04/19 05:12:05;;;;;;;16.33;11.27;;;;;;;;;;3587904;40;20118;-58
2021/04/19 05:14:32;;;;;;;12.75;11.45;;;;;;;;;;3588457;39;20426;-59
2021/04/19 05:16:57;;;;;;;12.82;10.52;;;;;;;;;;3588042;40;20036;-59
2021/04/19 05:19:23;;;;;;;14.18;12.77;;;;;;;;;;3588251;39;20068;-58
2021/04/19 05:21:48;;;;;;;21.00;12.20;;;;;;;;;;3589576;40;20041;-59
2021/04/19 05:24:14;;;;;;;14.77;13.18;;;;;;;;;;3588968;40;20059;-58
2021/04/19 05:26:39;;;;;;;15.48;13.57;;;;;;;;;;3588263;40;20295;-59
2021/04/19 05:29:05;;;;;;;14.20;12.70;;;;;;;;;;3588255;40;20047;-58
2021/04/19 05:31:30;;;;;;;15.15;13.50;;;;;;;;;;3588255;39;20028;-58
2021/04/19 05:33:56;;;;;;;16.10;13.20;;;;;;;;;;3588254;39;20301;-59
2021/04/19 05:36:24;;;;;;;15.23;12.75;;;;;;;;;;3591589;39;20036;-58
2021/04/19 05:38:50;;;;;;;13.07;11.45;;;;;;;;;;3587527;40;20036;-59
2021/04/19 05:41:16;;;;;;;14.50;13.00;;;;;;;;;;3588386;40;20031;-57
2021/04/19 05:43:43;;;;;;;16.08;12.35;;;;;;;;;;3586809;40;20394;-58
2021/04/19 05:46:09;;;;;;;17.85;12.70;;;;;;;;;;3588412;40;20044;-59
2021/04/19 05:48:34;;;;;;;14.13;12.65;;;;;;;;;;3588216;40;20610;-58
2021/04/19 05:51:03;;;;;;;14.20;12.80;;;;;;;;;;3589409;39;20036;-57
2021/04/19 05:53:29;;;;;;;16.15;12.45;;;;;;;;;;3588503;40;20056;-57
2021/04/19 05:55:56;;;;;;;13.07;11.65;;;;;;;;;;3586776;40;20110;-59
2021/04/19 05:58:31;;;;;;;16.90;12.77;;;;;;;;;;3589207;39;20063;-58
2021/04/19 06:01:06;;;;;;;14.48;12.75;;;;;;;;;;3587999;40;20047;-58
2021/04/19 06:03:46;;;;;;;16.90;13.25;;;;;;;;;;3588204;39;20043;-59
2021/04/19 06:06:17;;;;;;;17.70;12.65;;;;;;;;;;3588123;40;20073;-58
2021/04/19 06:09:05;;;;;;;26.33;13.15;;;;;;;;;;3587380;40;20075;-57
2021/04/19 06:11:43;;;;;;;17.30;13.77;;;;;;;;;;3590735;40;20137;-59
2021/04/19 06:14:14;;;;;;;21.05;14.65;;;;;;;;;;3590603;40;20036;-59
2021/04/19 06:16:41;;;;;;;16.05;13.75;;;;;;;;;;3592741;39;20047;-59
2021/04/19 06:19:11;;;;;;;14.52;12.85;;;;;;;;;;3590435;39;20083;-59
2021/04/19 06:21:37;;;;;;;13.57;12.18;;;;;;;;;;3589516;40;20349;-59
2021/04/19 06:24:04;;;;;;;14.30;12.65;;;;;;;;;;3589068;40;20395;-59
2021/04/19 06:26:32;;;;;;;15.13;13.52;;;;;;;;;;3588668;40;20040;-59
2021/04/19 06:28:58;;;;;;;17.52;14.25;;;;;;;;;;3591236;39;20124;-58
2021/04/19 06:31:24;;;;;;;14.73;12.77;;;;;;;;;;3593256;40;20047;-59
2021/04/19 06:34:06;;;;;;;17.67;12.57;;;;;;;;;;3590233;40;20044;-59
2021/04/19 06:36:37;;;;;;;16.70;13.25;;;;;;;;;;3589393;40;20030;-59
2021/04/19 06:39:07;;;;;;;15.13;13.52;;;;;;;;;;3589306;40;20029;-59
2021/04/19 06:41:33;;;;;;;14.52;13.02;;;;;;;;;;3590116;40;20059;-58
2021/04/19 06:43:59;;;;;;;14.57;13.13;;;;;;;;;;3590219;40;20028;-59
2021/04/19 06:46:33;;;;;;;16.10;14.40;;;;;;;;;;3590044;40;20520;-57
2021/04/19 06:48:59;;;;;;;16.13;13.95;;;;;;;;;;3589471;40;20044;-59
2021/04/19 06:51:25;;;;;;;17.85;13.45;;;;;;;;;;3589905;40;20035;-57
2021/04/19 06:53:54;;;;;;;15.48;13.38;;;;;;;;;;3589487;40;20064;-57
2021/04/19 06:56:23;;;;;;;15.15;12.57;;;;;;;;;;3589903;40;20055;-58
2021/04/19 06:58:53;;;;;;;15.00;13.38;;;;;;;;;;3589111;40;20044;-57
2021/04/19 07:01:20;;;;;;;14.38;12.85;;;;;;;;;;3587479;40;20065;-57
2021/04/19 07:03:49;;;;;;;19.63;14.43;;;;;;;;;;3588661;40;20347;-58
2021/04/19 07:06:16;;;;;;;14.77;13.20;;;;;;;;;;3589035;39;20051;-58
2021/04/19 07:08:48;;;;;;;17.38;14.57;;;;;;;;;;3590725;39;20032;-58
2021/04/19 07:11:17;;;;;;;17.02;13.18;;;;;;;;;;3591903;39;20048;-58
2021/04/19 07:13:44;;;;;;;16.65;12.75;;;;;;;;;;3588514;40;20117;-58
2021/04/19 07:16:11;;;;;;;17.48;14.25;;;;;;;;;;3589158;40;20041;-58
2021/04/19 07:18:38;;;;;;;17.17;13.60;;;;;;;;;;3589209;40;20029;-58
2021/04/19 07:21:05;;;;;;;16.92;13.90;;;;;;;;;;3589981;40;20052;-57
2021/04/19 07:23:33;;;;;;;15.50;13.77;;;;;;;;;;3590306;39;20287;-58
2021/04/19 07:25:58;;;;;;;17.38;12.90;;;;;;;;;;3589261;40;20021;-57
2021/04/19 07:28:24;;;;;;;17.38;13.20;;;;;;;;;;3590493;40;20040;-58
2021/04/19 07:30:59;;;;;;;17.85;12.98;;;;;;;;;;3588923;40;20069;-58
2021/04/19 07:33:26;;;;;;;19.88;13.65;;;;;;;;;;3590960;40;20149;-58
2021/04/19 07:35:51;;;;;;;16.17;12.80;;;;;;;;;;3589111;40;20040;-58
2021/04/19 07:38:37;;;;;;;21.85;13.52;;;;;;;;;;3589538;40;20113;-57
2021/04/19 07:41:02;;;;;;;15.25;12.98;;;;;;;;;;3589487;40;20048;-57
2021/04/19 07:43:33;;;;;;;15.55;13.57;;;;;;;;;;3592093;39;20042;-58
2021/04/19 07:45:58;;;;;;;16.15;12.88;;;;;;;;;;3590589;40;20036;-57
2021/04/19 07:48:42;;;;;;;14.45;12.93;;;;;;;;;;3590402;40;20036;-58
2021/04/19 07:51:31;;;;;;;17.08;13.15;;;;;;;;;;3590659;40;20296;-56
2021/04/19 07:54:20;;;;;;;15.85;14.25;;;;;;;;;;3589765;39;20056;-57
2021/04/19 07:56:54;;;;;;;20.48;14.98;;;;;;;;;;3588784;40;20040;-57
2021/04/19 07:59:31;;;;;;;15.43;13.27;;;;;;;;;;3588616;40;20043;-58
2021/04/19 08:02:04;;;;;;;16.00;13.43;;;;;;;;;;3589511;40;20029;-57
2021/04/19 08:04:30;;;;;;;20.50;16.00;;;;;;;;;;3589653;39;20036;-57
2021/04/19 08:06:56;;;;;;;13.70;12.30;;;;;;;;;;3587747;40;20364;-58
2021/04/19 08:09:26;;;;;;;15.10;13.43;;;;;;;;;;3590964;39;20042;-57
2021/04/19 08:11:57;;;;;;;19.55;17.38;;;;;;;;;;3590382;40;20051;-58
2021/04/19 08:14:32;;;;;;;14.93;12.93;;;;;;;;;;3590591;40;20028;-59
2021/04/19 08:17:05;;;;;;;14.82;12.52;;;;;;;;;;3589365;40;20055;-57
2021/04/19 08:19:34;;;;;;;13.18;11.80;;;;;;;;;;3588750;39;20058;-57
2021/04/19 08:22:15;;;;;;;14.93;13.00;;;;;;;;;;3589128;40;20080;-57
2021/04/19 08:24:40;;;;;;;14.23;12.52;;;;;;;;;;3590690;40;20081;-58
2021/04/19 08:27:06;;;;;;;16.33;14.38;;;;;;;;;;3588274;40;20025;-58
2021/04/19 08:29:39;;;;;;;16.85;14.10;;;;;;;;;;3588963;39;20024;-58
2021/04/19 08:32:06;;;;;;;16.73;14.82;;;;;;;;;;3588464;40;20356;-58
2021/04/19 08:34:35;;;;;;;15.57;13.35;;;;;;;;;;3589082;40;20064;-58
2021/04/19 08:37:01;;;;;;;14.20;12.60;;;;;;;;;;3588699;40;20025;-58
2021/04/19 08:39:28;;;;;;;13.65;11.57;;;;;;;;;;3589134;39;20047;-55
2021/04/19 08:41:54;;;;;;;12.50;10.20;;;;;;;;;;3590481;40;20090;-57
2021/04/19 08:44:20;;;;;;;13.13;10.32;;;;;;;;;;3589086;40;20117;-57
2021/04/19 08:46:46;;;;;;;13.25;10.50;;;;;;;;;;3588584;40;20028;-56
2021/04/19 08:49:12;;;;;;;15.18;10.82;;;;;;;;;;3587749;39;20166;-55
2021/04/19 08:51:39;;;;;;;10.68;9.57;;;;;;;;;;3589251;39;20051;-57
2021/04/19 08:54:05;;;;;;;11.10;9.40;;;;;;;;;;3589876;40;20059;-57
2021/04/19 08:56:30;;;;;;;11.13;9.05;;;;;;;;;;3589046;40;20513;-57
2021/04/19 08:58:56;;;;;;;10.57;8.85;;;;;;;;;;3588234;40;20045;-57
2021/04/19 09:01:21;;;;;;;11.48;7.82;;;;;;;;;;3586192;39;20089;-59
2021/04/19 09:04:07;;;;;;;8.80;7.57;;;;;;;;;;3588425;39;20053;-58
2021/04/19 09:06:40;;;;;;;13.35;8.55;;;;;;;;;;3589408;39;20041;-54
2021/04/19 09:09:05;;;;;;;8.75;7.85;;;;;;;;;;3587812;39;20048;-55
2021/04/19 09:11:31;;;;;;;8.50;7.10;;;;;;;;;;3588829;39;20032;-58
2021/04/19 09:14:04;;;;;;;9.02;7.82;;;;;;;;;;3587851;39;20449;-56
2021/04/19 09:16:36;;;;;;;9.30;7.85;;;;;;;;;;3589596;39;20058;-56
2021/04/19 09:19:02;;;;;;;9.00;8.10;;;;;;;;;;3588407;39;20124;-57
2021/04/19 09:21:38;;;;;;;10.02;8.15;;;;;;;;;;3588526;39;20040;-58
2021/04/19 09:24:12;;;;;;;11.88;8.95;;;;;;;;;;3589823;39;20033;-58
2021/04/19 09:26:44;;;;;;;9.65;7.88;;;;;;;;;;3588866;39;20025;-57
2021/04/19 09:29:10;;;;;;;8.38;7.57;;;;;;;;;;3589371;39;20041;-57
2021/04/19 09:32:17;;;;;;;9.00;7.90;;;;;;;;;;3589940;39;20040;-56
2021/04/19 09:34:50;;;;;;;10.02;7.93;;;;;;;;;;3588870;39;20133;-56
2021/04/19 09:37:43;;;;;;;9.38;8.13;;;;;;;;;;3587853;39;20039;-53
2021/04/19 09:40:16;;;;;;;8.38;7.40;;;;;;;;;;3587770;39;20346;-54
2021/04/19 09:42:58;;;;;;;8.18;7.07;;;;;;;;;;3588561;39;20032;-56
2021/04/19 09:45:47;;;;;;;10.95;7.50;;;;;;;;;;3592564;39;20028;-56
2021/04/19 09:48:27;;;;;;;11.15;7.35;;;;;;;;;;3589249;39;20060;-55
2021/04/19 09:51:12;;;;;;;13.27;7.40;;;;;;;;;;3590276;39;20051;-57
2021/04/19 09:53:39;;;;;;;10.68;7.32;;;;;;;;;;3590722;39;20048;-55
2021/04/19 09:56:04;;;;;;;8.30;7.40;;;;;;;;;;3589460;39;20590;-56
2021/04/19 09:58:30;;;;;;;9.50;6.88;;;;;;;;;;3591932;39;20048;-55
2021/04/19 10:00:57;;;;;;;9.07;6.85;;;;;;;;;;3589719;39;20118;-56
2021/04/19 10:03:22;;;;;;;10.98;7.57;;;;;;;;;;3589418;39;20307;-56
2021/04/19 10:05:52;;;;;;;10.43;6.28;;;;;;;;;;3588737;39;20068;-55
2021/04/19 10:08:22;;;;;;;7.47;5.70;;;;;;;;;;3589714;39;20039;-56
2021/04/19 10:10:52;;;;;;;7.50;6.13;;;;;;;;;;3590564;39;20055;-56
2021/04/19 10:13:38;;;;;;;9.93;6.45;;;;;;;;;;3589038;39;20035;-55
2021/04/19 10:16:11;;;;;;;10.38;5.93;;;;;;;;;;3590678;39;20035;-56
2021/04/19 10:18:39;;;;;;;7.72;6.55;;;;;;;;;;3591057;39;20133;-56
2021/04/19 10:21:06;;;;;;;9.93;6.57;;;;;;;;;;3589615;39;20136;-56
2021/04/19 10:23:36;;;;;;;8.55;6.15;;;;;;;;;;3591892;39;20044;-56
2021/04/19 10:26:02;;;;;;;7.18;5.90;;;;;;;;;;3590872;39;20035;-56
2021/04/19 10:28:35;;;;;;;8.13;6.78;;;;;;;;;;3589922;39;20051;-56
2021/04/19 10:31:16;;;;;;;9.60;7.28;;;;;;;;;;3590286;39;20040;-53
2021/04/19 10:33:50;;;;;;;11.93;7.60;;;;;;;;;;3589077;39;20276;-55
2021/04/19 10:36:20;;;;;;;7.65;6.63;;;;;;;;;;3590379;39;20378;-55
2021/04/19 10:38:51;;;;;;;8.05;7.00;;;;;;;;;;3591468;39;20035;-57
2021/04/19 10:41:27;;;;;;;;;;;;;;;;;;3591096;39;20029;-57
2021/04/19 10:43:53;;;;;;;9.75;6.20;;;;;;;;;;3590505;39;19936;-56
2021/04/19 10:46:24;;;;;;;8.63;6.22;;;;;;;;;;3591487;39;20031;-58
2021/04/19 10:48:51;;;;;;;9.93;6.70;;;;;;;;;;3590464;39;20110;-55
2021/04/19 10:51:25;;;;;;;8.32;6.10;;;;;;;;;;3589144;39;20039;-56
2021/04/19 10:53:56;;;;;;;7.65;6.65;;;;;;;;;;3591443;39;20079;-54
2021/04/19 10:56:24;;;;;;;7.03;5.82;;;;;;;;;;3588857;39;20044;-52
2021/04/19 10:58:52;;;;;;;7.15;5.65;;;;;;;;;;3590715;39;20105;-54
2021/04/19 11:01:31;;;;;;;11.48;5.78;;;;;;;;;;3591364;39;20075;-52
2021/04/19 11:04:02;;;;;;;7.65;5.70;;;;;;;;;;3590003;39;20040;-54
2021/04/19 11:06:28;;;;;;;9.60;5.50;;;;;;;;;;3589643;39;20036;-55
2021/04/19 11:08:58;;;;;;;6.65;5.70;;;;;;;;;;3589111;39;20617;-57
2021/04/19 11:11:38;;;;;;;7.60;5.45;;;;;;;;;;3589626;40;20395;-57
2021/04/19 11:14:13;;;;;;;7.13;5.38;;;;;;;;;;3588249;39;20037;-57
2021/04/19 11:17:08;;;;;;;6.85;5.05;;;;;;;;;;3591066;39;20042;-56
2021/04/19 11:19:44;;;;;;;7.13;5.20;;;;;;;;;;3588427;39;20063;-56
2021/04/19 11:22:33;;;;;;;6.68;5.00;;;;;;;;;;3589098;39;20040;-55
2021/04/19 11:25:19;;;;;;;6.50;4.80;;;;;;;;;;3590736;39;20383;-56
2021/04/19 11:27:46;;;;;;;8.40;4.95;;;;;;;;;;3589568;39;20121;-54
2021/04/19 11:30:18;;;;;;;6.97;4.90;;;;;;;;;;3592041;39;20040;-56
2021/04/19 11:32:43;;;;;;;6.72;4.65;;;;;;;;;;3589985;39;20107;-57
2021/04/19 11:35:24;;;;;;;6.50;4.82;;;;;;;;;;3589737;39;20068;-57
2021/04/19 11:38:00;;;;;;;6.03;4.22;;;;;;;;;;3590549;39;20099;-55
2021/04/19 11:40:29;;;;;;;9.40;4.47;;;;;;;;;;3589910;39;20128;-53
2021/04/19 11:42:55;;;;;;;5.32;3.33;;;;;;;;;;3590811;39;20080;-56
2021/04/19 11:45:25;;;;;;;9.15;3.90;;;;;;;;;;3589996;39;20051;-55
2021/04/19 11:47:51;;;;;;;5.25;3.80;;;;;;;;;;3590517;39;20283;-55
2021/04/19 11:50:18;;;;;;;5.55;3.35;;;;;;;;;;3587616;39;20024;-53
2021/04/19 11:52:48;;;;;;;5.90;4.25;;;;;;;;;;3589858;39;20092;-53
2021/04/19 11:55:14;;;;;;;6.38;4.40;;;;;;;;;;3590421;39;20148;-52
2021/04/19 11:57:41;;;;;;;6.18;3.88;;;;;;;;;;3589660;39;20032;-55
2021/04/19 12:00:11;;;;;;;5.75;3.42;;;;;;;;;;3590320;39;20036;-54
2021/04/19 12:02:36;;;;;;;4.55;3.47;;;;;;;;;;3590197;39;21834;-56
2021/04/19 12:05:07;;;;;;;6.57;3.90;;;;;;;;;;3588907;39;20049;-54
2021/04/19 12:07:32;;;;;;;6.28;4.07;;;;;;;;;;3589370;39;20038;-55
2021/04/19 12:09:58;;;;;;;4.80;3.38;;;;;;;;;;3589722;39;20032;-57
2021/04/19 12:12:24;;;;;;;7.47;4.00;;;;;;;;;;3589195;39;20047;-57
2021/04/19 12:14:50;;;;;;;5.20;3.38;;;;;;;;;;3589800;39;20044;-58
2021/04/19 12:17:16;;;;;;;4.57;3.17;;;;;;;;;;3589750;39;20032;-58
2021/04/19 12:19:42;;;;;;;4.65;3.13;;;;;;;;;;3589327;39;20025;-58
2021/04/19 12:22:07;;;;;;;4.65;3.55;;;;;;;;;;3589331;39;20129;-58
2021/04/19 12:24:33;;;;;;;5.72;3.33;;;;;;;;;;3589040;39;20039;-57
2021/04/19 12:26:58;;;;;;;6.68;3.85;;;;;;;;;;3588700;39;20452;-55
2021/04/19 12:29:24;;;;;;;5.00;3.53;;;;;;;;;;3587991;39;20150;-57
2021/04/19 12:31:49;;;;;;;5.45;4.35;;;;;;;;;;3589543;39;20118;-58
2021/04/19 12:34:14;;;;;;;6.05;4.18;;;;;;;;;;3588651;39;20092;-57
2021/04/19 12:36:40;;;;;;;5.20;3.60;;;;;;;;;;3586964;39;20155;-56
2021/04/19 12:39:06;;;;;;;6.22;2.85;;;;;;;;;;3588686;39;20281;-57
2021/04/19 12:41:32;;;;;;;6.10;3.70;;;;;;;;;;3588032;40;20481;-54
2021/04/19 12:43:58;;;;;;;4.85;3.38;;;;;;;;;;3591739;40;20036;-57
2021/04/19 12:46:26;;;;;;;6.82;4.00;;;;;;;;;;3591660;39;20032;-57
2021/04/19 12:48:52;;;;;;;5.65;4.03;;;;;;;;;;3589734;40;20088;-56
2021/04/19 12:51:17;;;;;;;5.35;3.65;;;;;;;;;;3592107;40;20055;-56
2021/04/19 12:53:43;;;;;;;7.47;4.15;;;;;;;;;;3592404;39;20052;-55
2021/04/19 12:56:09;;;;;;;9.13;4.65;;;;;;;;;;3593366;40;20126;-57
2021/04/19 12:58:40;;;;;;;29.05;17.23;;;;;;;;;;3589978;39;20519;-56
2021/04/19 13:01:05;;;;;;;12.43;7.70;;;;;;;;;;3591559;40;20470;-56
2021/04/19 13:03:30;;;;;;;8.02;5.60;;;;;;;;;;3589492;39;20032;-56
2021/04/19 13:05:56;;;;;;;6.57;3.60;;;;;;;;;;3588884;40;20028;-56
2021/04/19 13:08:21;;;;;;;4.90;3.33;;;;;;;;;;3588737;40;20418;-58
2021/04/19 13:10:47;;;;;;;5.05;3.38;;;;;;;;;;3592018;39;20129;-56
2021/04/19 13:13:12;;;;;;;4.50;3.13;;;;;;;;;;3587323;39;20275;-55
2021/04/19 13:15:38;;;;;;;5.50;3.17;;;;;;;;;;3589257;40;20040;-54
2021/04/19 13:18:03;;;;;;;5.45;3.15;;;;;;;;;;3588298;40;20090;-52
2021/04/19 13:20:29;;;;;;;4.47;2.80;;;;;;;;;;3587542;40;20036;-54
2021/04/19 13:22:55;;;;;;;4.63;2.92;;;;;;;;;;3589050;39;20384;-54
2021/04/19 13:25:21;;;;;;;5.32;3.90;;;;;;;;;;3588954;40;20275;-56
2021/04/19 13:27:47;;;;;;;5.65;3.25;;;;;;;;;;3590191;40;20040;-54
2021/04/19 13:30:13;;;;;;;4.55;3.20;;;;;;;;;;3589038;40;20059;-54
2021/04/19 13:32:38;;;;;;;4.63;2.60;;;;;;;;;;3588108;39;20032;-52
2021/04/19 13:35:08;;;;;;;4.15;2.80;;;;;;;;;;3589060;40;20025;-55
2021/04/19 13:37:34;;;;;;;5.30;3.08;;;;;;;;;;3587600;40;20049;-54
2021/04/19 13:40:00;;;;;;;5.95;3.30;;;;;;;;;;3588522;39;20113;-54
2021/04/19 13:42:25;;;;;;;3.88;2.80;;;;;;;;;;3592150;39;20025;-53
2021/04/19 13:44:51;;;;;;;4.53;3.40;;;;;;;;;;3587999;40;20081;-53
2021/04/19 13:47:16;;;;;;;5.13;2.95;;;;;;;;;;3588729;40;20040;-56
2021/04/19 13:49:41;;;;;;;4.68;2.88;;;;;;;;;;3587449;39;20053;-54
2021/04/19 13:52:07;;;;;;;4.00;2.20;;;;;;;;;;3588639;40;20029;-53
2021/04/19 13:54:32;;;;;;;5.55;2.38;;;;;;;;;;3588896;39;20048;-53
2021/04/19 13:56:58;;;;;;;6.75;3.53;;;;;;;;;;3588174;40;20048;-56
2021/04/19 13:59:23;;;;;;;4.10;2.55;;;;;;;;;;3589190;40;20070;-55
2021/04/19 14:01:49;;;;;;;3.75;2.00;;;;;;;;;;3590153;39;20041;-54
2021/04/19 14:04:14;;;;;;;6.53;2.20;;;;;;;;;;3587678;40;20091;-54
2021/04/19 14:06:40;;;;;;;3.47;1.70;;;;;;;;;;3587875;40;20379;-55
2021/04/19 14:09:06;;;;;;;3.00;1.77;;;;;;;;;;3589624;39;20117;-56
2021/04/19 14:11:31;;;;;;;4.60;1.60;;;;;;;;;;3588862;39;20060;-55
2021/04/19 14:13:56;;;;;;;4.03;2.28;;;;;;;;;;3588056;40;20036;-56
2021/04/19 14:16:22;;;;;;;3.60;1.95;;;;;;;;;;3587804;40;20416;-55
2021/04/19 14:18:47;;;;;;;6.35;2.40;;;;;;;;;;3587775;40;20108;-56
2021/04/19 14:21:13;;;;;;;3.90;2.30;;;;;;;;;;3591442;39;20033;-57
2021/04/19 14:23:38;;;;;;;5.00;3.15;;;;;;;;;;3586868;39;20043;-57
2021/04/19 14:26:07;;;;;;;6.88;3.00;;;;;;;;;;3586951;39;20029;-57
2021/04/19 14:28:35;;;;;;;4.55;3.15;;;;;;;;;;3588307;39;20133;-57
2021/04/19 14:31:01;;;;;;;4.35;2.83;;;;;;;;;;3588322;39;20032;-56
2021/04/19 14:33:27;;;;;;;3.70;2.47;;;;;;;;;;3588770;39;20051;-55
2021/04/19 14:35:52;;;;;;;3.92;2.40;;;;;;;;;;3588792;39;20041;-56
2021/04/19 14:38:19;;;;;;;2.83;1.88;;;;;;;;;;3590775;40;20024;-57